createdAt,value
2016-11-20T00:01:04.921Z,15.62
2016-11-20T00:02:15.329Z,15.66
2016-11-20T00:03:25.934Z,15.67
2016-11-20T00:04:50.893Z,15.64
2016-11-20T00:06:01.298Z,15.64
2016-11-20T00:07:11.702Z,15.6
2016-11-20T00:08:22.107Z,15.64
2016-11-20T00:09:32.715Z,15.62
2016-11-20T00:10:43.118Z,15.66
2016-11-20T00:13:33.228Z,15.68
2016-11-20T00:14:43.661Z,15.71
2016-11-20T00:15:54.070Z,15.71
2016-11-20T00:17:04.475Z,15.67
2016-11-20T00:18:14.887Z,15.7
2016-11-20T00:19:25.320Z,15.66
2016-11-20T00:20:35.739Z,15.71
2016-11-20T00:21:46.147Z,15.67
2016-11-20T00:22:56.555Z,15.68
2016-11-20T00:24:06.964Z,15.6
2016-11-20T00:25:17.469Z,15.68
2016-11-20T00:26:27.873Z,15.68
2016-11-20T00:27:52.824Z,15.67
2016-11-20T00:29:03.264Z,15.73
2016-11-20T00:30:13.769Z,15.7
2016-11-20T00:31:24.173Z,15.68
2016-11-20T00:32:34.584Z,15.67
2016-11-20T00:33:44.939Z,15.64
2016-11-20T00:34:55.256Z,15.67
2016-11-20T00:36:05.777Z,15.67
2016-11-20T00:37:16.089Z,15.66
2016-11-20T00:38:26.409Z,15.53
2016-11-20T00:39:36.726Z,15.51
2016-11-20T00:40:47.040Z,15.53
2016-11-20T00:41:57.586Z,15.52
2016-11-20T00:43:07.900Z,15.53
2016-11-20T00:44:18.210Z,15.53
2016-11-20T00:45:28.526Z,15.52
2016-11-20T00:46:38.834Z,15.59
2016-11-20T00:47:49.355Z,15.59
2016-11-20T00:48:59.669Z,15.66
2016-11-20T00:50:09.986Z,15.58
2016-11-20T00:51:20.304Z,15.51
2016-11-20T00:52:31.096Z,15.58
2016-11-20T00:53:41.610Z,15.6
2016-11-20T00:54:51.920Z,15.53
2016-11-20T00:56:02.240Z,15.56
2016-11-20T00:57:12.554Z,15.6
2016-11-20T00:58:37.633Z,15.46
2016-11-20T00:59:47.954Z,15.41
2016-11-20T01:00:58.268Z,15.44
2016-11-20T01:02:23.147Z,15.41
2016-11-20T01:03:33.460Z,15.46
2016-11-20T01:04:43.908Z,15.48
2016-11-20T01:06:08.788Z,15.41
2016-11-20T01:07:19.591Z,15.37
2016-11-20T01:08:29.905Z,15.41
2016-11-20T01:09:40.337Z,15.43
2016-11-20T01:10:50.687Z,15.43
2016-11-20T01:12:01.006Z,15.52
2016-11-20T01:13:11.317Z,15.49
2016-11-20T01:14:36.202Z,15.51
2016-11-20T01:15:46.517Z,15.56
2016-11-20T01:16:56.867Z,15.55
2016-11-20T01:18:07.225Z,15.49
2016-11-20T01:19:17.544Z,15.46
2016-11-20T01:20:28.065Z,15.48
2016-11-20T01:21:38.377Z,15.48
2016-11-20T01:22:48.738Z,15.49
2016-11-20T01:23:59.051Z,15.51
2016-11-20T01:25:09.364Z,15.51
2016-11-20T01:26:19.878Z,15.44
2016-11-20T01:27:30.191Z,15.52
2016-11-20T01:28:40.509Z,15.48
2016-11-20T01:29:50.820Z,15.4
2016-11-20T01:31:01.611Z,15.44
2016-11-20T01:32:11.927Z,15.51
2016-11-20T01:33:22.242Z,15.46
2016-11-20T01:34:32.566Z,15.43
2016-11-20T01:35:42.880Z,15.37
2016-11-20T01:36:53.671Z,15.4
2016-11-20T01:38:04.198Z,15.35
2016-11-20T01:39:14.512Z,15.34
2016-11-20T01:40:24.824Z,15.41
2016-11-20T01:41:35.139Z,15.38
2016-11-20T01:42:45.460Z,15.44
2016-11-20T01:43:55.981Z,15.52
2016-11-20T01:45:06.300Z,15.51
2016-11-20T01:46:16.614Z,15.37
2016-11-20T01:47:41.491Z,15.52
2016-11-20T01:48:51.805Z,15.51
2016-11-20T01:50:02.115Z,15.58
2016-11-20T01:51:12.908Z,15.56
2016-11-20T01:52:23.223Z,15.66
2016-11-20T01:53:33.539Z,15.67
2016-11-20T01:54:44.053Z,15.7
2016-11-20T01:55:54.368Z,15.68
2016-11-20T01:57:04.683Z,15.7
2016-11-20T01:58:15.004Z,15.7
2016-11-20T01:59:25.322Z,15.71
2016-11-20T02:00:35.735Z,15.76
2016-11-20T02:01:46.049Z,15.76
2016-11-20T02:02:56.363Z,15.6
2016-11-20T02:04:06.677Z,15.56
2016-11-20T02:05:16.992Z,15.67
2016-11-20T02:06:27.407Z,15.66
2016-11-20T02:07:52.286Z,15.66
2016-11-20T02:09:02.602Z,15.78
2016-11-20T02:10:12.919Z,15.78
2016-11-20T02:11:23.261Z,15.74
2016-11-20T02:12:48.242Z,15.76
2016-11-20T02:13:58.559Z,15.71
2016-11-20T02:15:08.872Z,15.78
2016-11-20T02:16:19.190Z,15.77
2016-11-20T02:17:29.604Z,15.85
2016-11-20T02:18:39.925Z,15.85
2016-11-20T02:19:50.239Z,15.86
2016-11-20T02:21:01.036Z,15.74
2016-11-20T02:22:11.380Z,15.8
2016-11-20T02:23:21.696Z,15.77
2016-11-20T02:24:32.015Z,15.77
2016-11-20T02:25:42.330Z,15.73
2016-11-20T02:26:52.643Z,15.73
2016-11-20T02:28:02.959Z,15.7
2016-11-20T02:29:13.273Z,15.66
2016-11-20T02:30:23.585Z,15.59
2016-11-20T02:31:33.903Z,15.64
2016-11-20T02:32:44.283Z,15.59
2016-11-20T02:33:54.719Z,15.68
2016-11-20T02:35:05.153Z,15.64
2016-11-20T02:36:15.591Z,15.6
2016-11-20T02:37:40.569Z,15.66
2016-11-20T02:38:51.004Z,15.64
2016-11-20T02:40:01.535Z,15.66
2016-11-20T02:41:12.509Z,15.66
2016-11-20T02:42:22.943Z,15.67
2016-11-20T02:43:33.379Z,15.64
2016-11-20T02:44:43.814Z,15.67
2016-11-20T02:45:54.251Z,15.66
2016-11-20T02:47:04.684Z,15.62
2016-11-20T02:48:15.120Z,15.64
2016-11-20T02:49:25.558Z,15.7
2016-11-20T02:50:35.992Z,15.67
2016-11-20T02:53:11.506Z,15.7
2016-11-20T02:54:21.939Z,15.71
2016-11-20T02:55:32.374Z,15.74
2016-11-20T02:56:42.915Z,15.73
2016-11-20T02:57:53.351Z,15.67
2016-11-20T02:59:03.788Z,15.74
2016-11-20T03:00:14.739Z,15.66
2016-11-20T03:01:25.174Z,15.7
2016-11-20T03:04:00.785Z,15.74
2016-11-20T03:05:11.219Z,15.84
2016-11-20T03:06:21.651Z,15.88
2016-11-20T03:07:32.287Z,15.91
2016-11-20T03:08:42.722Z,15.88
2016-11-20T03:09:53.193Z,15.86
2016-11-20T03:11:03.639Z,15.88
2016-11-20T03:16:45.828Z,15.84
2016-11-20T03:17:56.259Z,15.95
2016-11-20T03:19:06.697Z,15.84
2016-11-20T03:20:17.627Z,15.81
2016-11-20T03:21:28.062Z,15.77
2016-11-20T03:22:38.507Z,15.77
2016-11-20T03:23:48.942Z,15.85
2016-11-20T03:24:59.378Z,15.84
2016-11-20T03:26:09.839Z,15.81
2016-11-20T03:27:20.368Z,15.89
2016-11-20T03:28:30.798Z,15.88
2016-11-20T03:29:41.240Z,15.8
2016-11-20T03:30:51.672Z,15.8
2016-11-20T03:32:02.108Z,15.74
2016-11-20T03:33:12.542Z,15.84
2016-11-20T03:34:23.030Z,15.76
2016-11-20T03:35:34.051Z,15.81
2016-11-20T03:36:44.577Z,15.8
2016-11-20T03:37:55.108Z,15.74
2016-11-20T03:39:05.870Z,15.78
2016-11-20T03:40:16.394Z,15.77
2016-11-20T03:41:26.915Z,15.8
2016-11-20T03:42:37.383Z,15.81
2016-11-20T03:43:47.792Z,15.78
2016-11-20T03:44:58.201Z,15.77
2016-11-20T03:46:08.609Z,15.74
2016-11-20T03:47:19.021Z,15.7
2016-11-20T03:48:29.429Z,15.67
2016-11-20T03:49:39.838Z,15.7
2016-11-20T03:50:50.344Z,15.71
2016-11-20T03:52:00.778Z,15.71
2016-11-20T03:53:11.192Z,15.68
2016-11-20T03:54:21.598Z,15.74
2016-11-20T03:55:32.005Z,15.74
2016-11-20T03:56:42.608Z,15.67
2016-11-20T03:57:53.015Z,15.64
2016-11-20T03:59:03.422Z,15.62
2016-11-20T04:00:13.828Z,15.68
2016-11-20T04:02:49.189Z,15.68
2016-11-20T04:03:59.594Z,15.67
2016-11-20T04:05:09.997Z,15.71
2016-11-20T04:06:20.401Z,15.73
2016-11-20T04:07:31.011Z,15.74
2016-11-20T04:08:55.970Z,15.78
2016-11-20T04:10:06.378Z,15.86
2016-11-20T04:11:16.787Z,15.88
2016-11-20T04:12:27.292Z,15.64
2016-11-20T04:13:37.700Z,15.56
2016-11-20T04:14:48.106Z,15.46
2016-11-20T04:15:58.516Z,15.41
2016-11-20T04:17:08.923Z,15.52
2016-11-20T04:18:19.526Z,15.56
2016-11-20T04:19:29.879Z,15.62
2016-11-20T04:20:40.197Z,15.59
2016-11-20T04:21:50.556Z,15.67
2016-11-20T04:23:00.872Z,15.66
2016-11-20T04:24:11.391Z,15.66
2016-11-20T04:25:21.704Z,15.6
2016-11-20T04:26:32.019Z,15.64
2016-11-20T04:27:42.811Z,15.59
2016-11-20T04:28:53.121Z,15.55
2016-11-20T04:30:03.437Z,15.58
2016-11-20T04:31:13.748Z,15.53
2016-11-20T04:32:24.070Z,15.52
2016-11-20T04:34:59.296Z,15.48
2016-11-20T04:36:09.710Z,15.52
2016-11-20T04:37:20.023Z,15.48
2016-11-20T04:38:30.339Z,15.51
2016-11-20T04:39:40.653Z,15.48
2016-11-20T04:40:51.065Z,15.43
2016-11-20T04:42:01.380Z,15.37
2016-11-20T04:43:11.698Z,15.51
2016-11-20T04:44:22.013Z,15.38
2016-11-20T04:45:32.325Z,15.4
2016-11-20T04:46:57.208Z,15.4
2016-11-20T04:48:07.528Z,15.41
2016-11-20T04:49:17.837Z,15.4
2016-11-20T04:50:28.153Z,15.41
2016-11-20T04:51:38.535Z,15.38
2016-11-20T04:52:48.970Z,15.43
2016-11-20T04:53:59.400Z,15.27
2016-11-20T04:55:09.834Z,15.37
2016-11-20T04:56:20.288Z,15.35
2016-11-20T04:57:30.719Z,15.33
2016-11-20T04:58:41.153Z,15.34
2016-11-20T04:59:51.585Z,15.35
2016-11-20T05:01:02.019Z,15.27
2016-11-20T05:02:12.450Z,15.28
2016-11-20T05:03:22.880Z,15.38
2016-11-20T05:04:33.370Z,15.4
2016-11-20T05:05:43.894Z,15.41
2016-11-20T05:06:54.416Z,15.46
2016-11-20T05:08:04.938Z,15.43
2016-11-20T05:09:15.561Z,15.4
2016-11-20T05:10:26.088Z,15.44
2016-11-20T05:11:36.611Z,15.35
2016-11-20T05:12:47.134Z,15.53
2016-11-20T05:13:57.660Z,15.43
2016-11-20T05:15:08.181Z,15.49
2016-11-20T05:16:18.729Z,15.37
2016-11-20T05:17:29.257Z,15.3
2016-11-20T05:18:39.807Z,15.38
2016-11-20T05:19:50.328Z,15.28
2016-11-20T05:21:01.060Z,15.41
2016-11-20T05:22:11.583Z,15.44
2016-11-20T05:23:22.107Z,15.4
2016-11-20T05:24:32.631Z,15.48
2016-11-20T05:25:43.675Z,15.52
2016-11-20T05:26:54.238Z,15.41
2016-11-20T05:28:04.647Z,15.27
2016-11-20T05:29:15.055Z,15.31
2016-11-20T05:30:25.465Z,15.28
2016-11-20T05:31:35.880Z,15.28
2016-11-20T05:33:00.832Z,15.31
2016-11-20T05:34:11.237Z,15.18
2016-11-20T05:35:21.642Z,15.15
2016-11-20T05:36:32.054Z,15.18
2016-11-20T05:37:42.667Z,15.18
2016-11-20T05:38:53.097Z,15.28
2016-11-20T05:40:03.506Z,15.25
2016-11-20T05:41:13.914Z,15.31
2016-11-20T05:42:24.320Z,15.27
2016-11-20T05:43:34.924Z,15.34
2016-11-20T05:44:45.330Z,15.35
2016-11-20T05:45:55.746Z,15.37
2016-11-20T05:47:06.154Z,15.38
2016-11-20T05:48:31.291Z,15.35
2016-11-20T05:49:41.608Z,15.38
2016-11-20T05:50:51.951Z,15.37
2016-11-20T05:52:02.275Z,15.37
2016-11-20T05:53:12.593Z,15.34
2016-11-20T05:54:23.026Z,15.33
2016-11-20T05:55:33.350Z,15.34
2016-11-20T05:56:43.665Z,15.35
2016-11-20T05:57:53.977Z,15.27
2016-11-20T05:59:04.291Z,15.23
2016-11-20T06:00:14.708Z,15.2
2016-11-20T06:01:25.022Z,15.11
2016-11-20T06:02:35.338Z,15.18
2016-11-20T06:03:45.654Z,15.13
2016-11-20T06:05:10.537Z,15.03
2016-11-20T06:06:20.850Z,15.04
2016-11-20T06:07:31.159Z,15.12
2016-11-20T06:08:41.478Z,15.03
2016-11-20T06:09:51.799Z,15.09
2016-11-20T06:11:16.684Z,15.05
2016-11-20T06:12:26.995Z,15.01
2016-11-20T06:13:37.310Z,15.03
2016-11-20T06:14:47.625Z,15.03
2016-11-20T06:15:58.141Z,14.97
2016-11-20T06:17:08.463Z,15
2016-11-20T06:18:18.779Z,14.91
2016-11-20T06:19:29.096Z,14.95
2016-11-20T06:20:53.978Z,14.85
2016-11-20T06:22:04.488Z,14.87
2016-11-20T06:23:14.801Z,14.85
2016-11-20T06:24:25.116Z,14.93
2016-11-20T06:25:35.430Z,15.03
2016-11-20T06:26:45.743Z,14.95
2016-11-20T06:27:56.054Z,14.86
2016-11-20T06:29:06.369Z,14.8
2016-11-20T06:30:16.684Z,14.94
2016-11-20T06:31:26.997Z,15.03
2016-11-20T06:32:51.879Z,14.98
2016-11-20T06:34:02.250Z,15.01
2016-11-20T06:35:12.696Z,14.95
2016-11-20T06:36:23.105Z,15
2016-11-20T06:37:33.610Z,15.04
2016-11-20T06:38:44.012Z,14.95
2016-11-20T06:39:54.418Z,14.97
2016-11-20T06:41:04.829Z,14.97
2016-11-20T06:42:15.240Z,14.93
2016-11-20T06:43:25.746Z,14.97
2016-11-20T06:44:36.155Z,14.95
2016-11-20T06:45:46.564Z,14.95
2016-11-20T06:46:56.964Z,14.86
2016-11-20T06:48:07.862Z,14.87
2016-11-20T06:49:18.368Z,14.86
2016-11-20T06:50:28.771Z,14.83
2016-11-20T06:51:39.185Z,14.86
2016-11-20T06:52:49.595Z,14.79
2016-11-20T06:54:00.001Z,14.79
2016-11-20T06:55:10.989Z,14.8
2016-11-20T06:56:21.393Z,14.75
2016-11-20T06:57:31.799Z,14.83
2016-11-20T06:58:42.210Z,14.86
2016-11-20T06:59:52.646Z,14.83
2016-11-20T07:01:03.148Z,14.75
2016-11-20T07:02:13.559Z,14.83
2016-11-20T07:03:24.450Z,14.79
2016-11-20T07:04:34.859Z,14.87
2016-11-20T07:05:45.265Z,14.83
2016-11-20T07:06:55.765Z,14.74
2016-11-20T07:08:06.169Z,14.67
2016-11-20T07:09:16.578Z,14.75
2016-11-20T07:10:26.982Z,14.74
2016-11-20T07:11:37.394Z,14.72
2016-11-20T07:12:47.797Z,14.66
2016-11-20T07:13:58.197Z,14.69
2016-11-20T07:15:08.603Z,14.72
2016-11-20T07:16:19.016Z,14.79
2016-11-20T07:17:29.907Z,14.86
2016-11-20T07:18:40.543Z,14.78
2016-11-20T07:19:50.946Z,14.8
2016-11-20T07:21:01.354Z,14.85
2016-11-20T07:22:11.763Z,14.78
2016-11-20T07:23:22.170Z,14.8
2016-11-20T07:24:32.675Z,14.79
2016-11-20T07:25:43.081Z,14.82
2016-11-20T07:26:53.485Z,14.91
2016-11-20T07:28:03.889Z,14.79
2016-11-20T07:29:14.293Z,14.8
2016-11-20T07:30:25.314Z,14.85
2016-11-20T07:31:35.719Z,14.8
2016-11-20T07:32:46.124Z,14.69
2016-11-20T07:33:56.530Z,14.67
2016-11-20T07:35:06.932Z,14.74
2016-11-20T07:36:17.340Z,14.67
2016-11-20T07:37:27.749Z,14.78
2016-11-20T07:38:52.710Z,14.69
2016-11-20T07:40:03.113Z,14.78
2016-11-20T07:41:13.543Z,14.69
2016-11-20T07:42:23.952Z,14.69
2016-11-20T07:44:03.455Z,14.75
2016-11-20T07:45:13.881Z,14.66
2016-11-20T07:46:24.484Z,14.61
2016-11-20T07:47:34.891Z,14.79
2016-11-20T07:48:45.315Z,14.63
2016-11-20T07:49:55.721Z,14.74
2016-11-20T07:51:20.875Z,14.72
2016-11-20T07:52:31.283Z,14.74
2016-11-20T07:53:41.689Z,14.63
2016-11-20T07:54:52.091Z,14.72
2016-11-20T07:56:02.501Z,14.69
2016-11-20T07:57:12.912Z,14.61
2016-11-20T07:58:23.809Z,14.71
2016-11-20T07:59:34.213Z,14.71
2016-11-20T08:00:44.623Z,14.71
2016-11-20T08:01:55.027Z,14.66
2016-11-20T08:03:05.529Z,14.67
2016-11-20T08:04:15.874Z,14.67
2016-11-20T08:05:26.193Z,14.69
2016-11-20T08:06:36.509Z,14.66
2016-11-20T08:07:46.821Z,14.64
2016-11-20T08:08:57.262Z,14.71
2016-11-20T08:10:07.575Z,14.64
2016-11-20T08:11:17.889Z,14.69
2016-11-20T08:12:28.201Z,14.74
2016-11-20T08:13:38.513Z,14.71
2016-11-20T08:14:48.829Z,14.66
2016-11-20T08:15:59.143Z,14.83
2016-11-20T08:17:09.453Z,14.66
2016-11-20T08:18:19.770Z,14.71
2016-11-20T08:19:30.083Z,14.8
2016-11-20T08:20:40.395Z,14.67
2016-11-20T08:21:50.707Z,14.71
2016-11-20T08:23:01.036Z,14.79
2016-11-20T08:24:11.413Z,14.64
2016-11-20T08:25:21.846Z,14.66
2016-11-20T08:26:32.479Z,14.66
2016-11-20T08:27:43.408Z,14.74
2016-11-20T08:29:08.385Z,14.71
2016-11-20T08:30:18.819Z,14.69
2016-11-20T08:31:29.249Z,14.67
2016-11-20T08:32:39.709Z,14.64
2016-11-20T08:33:50.141Z,14.72
2016-11-20T08:35:00.568Z,14.66
2016-11-20T08:36:10.997Z,14.63
2016-11-20T08:37:21.425Z,14.66
2016-11-20T08:38:31.857Z,14.71
2016-11-20T08:39:42.296Z,14.64
2016-11-20T08:40:52.728Z,14.64
2016-11-20T08:42:03.156Z,14.66
2016-11-20T08:43:13.722Z,14.64
2016-11-20T08:44:24.154Z,14.67
2016-11-20T08:45:34.588Z,14.67
2016-11-20T08:46:45.020Z,14.63
2016-11-20T08:47:55.455Z,14.64
2016-11-20T08:49:06.147Z,14.69
2016-11-20T08:50:16.672Z,14.64
2016-11-20T08:51:27.196Z,14.63
2016-11-20T08:52:52.247Z,14.69
2016-11-20T08:54:02.772Z,14.69
2016-11-20T08:55:13.294Z,14.61
2016-11-20T08:56:23.817Z,14.66
2016-11-20T08:57:34.347Z,14.66
2016-11-20T08:58:44.809Z,14.66
2016-11-20T08:59:55.411Z,14.63
2016-11-20T09:01:05.820Z,14.69
2016-11-20T09:02:16.227Z,14.67
2016-11-20T09:03:26.634Z,14.69
2016-11-20T09:04:37.053Z,14.71
2016-11-20T09:05:47.556Z,14.61
2016-11-20T09:06:57.963Z,14.64
2016-11-20T09:08:08.375Z,14.67
2016-11-20T09:09:18.782Z,14.82
2016-11-20T09:10:29.186Z,14.75
2016-11-20T09:11:39.793Z,14.82
2016-11-20T09:12:50.203Z,14.83
2016-11-20T09:14:00.611Z,14.82
2016-11-20T09:15:11.017Z,14.91
2016-11-20T09:16:21.916Z,15
2016-11-20T09:17:32.520Z,15
2016-11-20T09:18:42.930Z,15.04
2016-11-20T09:19:53.338Z,14.97
2016-11-20T09:21:03.741Z,15.03
2016-11-20T09:22:14.148Z,15.09
2016-11-20T09:23:24.653Z,15.11
2016-11-20T09:24:35.067Z,15.04
2016-11-20T09:25:45.475Z,14.98
2016-11-20T09:26:56.160Z,14.95
2016-11-20T09:28:06.562Z,14.83
2016-11-20T09:29:17.068Z,14.9
2016-11-20T09:30:42.024Z,14.87
2016-11-20T09:31:52.433Z,14.86
2016-11-20T09:33:02.849Z,14.97
2016-11-20T09:34:13.416Z,15
2016-11-20T09:35:23.937Z,15.01
2016-11-20T09:36:34.458Z,15.05
2016-11-20T09:37:45.009Z,15.07
2016-11-20T09:39:24.783Z,15.03
2016-11-20T09:40:35.308Z,15.04
2016-11-20T09:43:10.886Z,14.98
2016-11-20T09:44:21.412Z,15.05
2016-11-20T09:45:32.038Z,15.04
2016-11-20T09:46:42.561Z,15.15
2016-11-20T09:47:53.084Z,15.23
2016-11-20T09:49:03.606Z,15.31
2016-11-20T09:50:14.232Z,15.31
2016-11-20T09:51:24.757Z,15.22
2016-11-20T09:52:35.285Z,15.3
2016-11-20T09:53:45.812Z,15.33
2016-11-20T09:54:56.337Z,15.34
2016-11-20T09:56:06.860Z,15.33
2016-11-20T09:57:17.380Z,15.4
2016-11-20T09:58:27.905Z,15.53
2016-11-20T09:59:38.430Z,15.55
2016-11-20T10:00:49.997Z,15.44
2016-11-20T10:02:00.617Z,15.46
2016-11-20T10:03:11.195Z,15.59
2016-11-20T10:04:21.716Z,15.37
2016-11-20T10:05:32.242Z,15.34
2016-11-20T10:06:42.769Z,15.35
2016-11-20T10:07:53.493Z,15.43
2016-11-20T10:09:03.955Z,15.49
2016-11-20T10:10:28.918Z,15.49
2016-11-20T10:11:39.323Z,15.51
2016-11-20T10:12:49.931Z,15.48
2016-11-20T10:14:00.343Z,15.66
2016-11-20T10:15:10.751Z,15.7
2016-11-20T10:16:21.158Z,15.74
2016-11-20T10:17:31.565Z,15.84
2016-11-20T10:18:42.070Z,15.88
2016-11-20T10:19:52.482Z,15.98
2016-11-20T10:21:02.894Z,15.98
2016-11-20T10:22:13.300Z,16.06
2016-11-20T10:23:23.705Z,16.1
2016-11-20T10:24:34.320Z,16.13
2016-11-20T10:25:44.728Z,16.17
2016-11-20T10:26:55.134Z,16.08
2016-11-20T10:28:05.544Z,16.06
2016-11-20T10:29:15.954Z,16.14
2016-11-20T10:30:26.781Z,16.13
2016-11-20T10:31:52.302Z,16.25
2016-11-20T10:33:02.706Z,16.32
2016-11-20T10:34:13.115Z,16.41
2016-11-20T10:35:23.521Z,16.44
2016-11-20T10:36:33.942Z,16.44
2016-11-20T10:37:44.347Z,16.4
2016-11-20T10:39:09.302Z,16.44
2016-11-20T10:40:19.711Z,16.4
2016-11-20T10:41:30.319Z,16.42
2016-11-20T10:42:40.739Z,16.48
2016-11-20T10:43:51.145Z,16.55
2016-11-20T10:45:01.551Z,16.59
2016-11-20T10:46:12.159Z,16.63
2016-11-20T10:47:22.567Z,16.6
2016-11-20T10:48:32.981Z,16.66
2016-11-20T10:49:43.427Z,16.57
2016-11-20T10:50:53.837Z,16.67
2016-11-20T10:52:04.244Z,16.72
2016-11-20T10:53:14.648Z,16.81
2016-11-20T10:54:25.058Z,16.75
2016-11-20T10:55:35.459Z,16.82
2016-11-20T10:56:45.873Z,16.8
2016-11-20T10:58:10.929Z,17.03
2016-11-20T11:00:46.295Z,17.15
2016-11-20T11:01:56.703Z,17.14
2016-11-20T11:03:07.310Z,17.15
2016-11-20T11:04:17.664Z,17.25
2016-11-20T11:05:27.987Z,17.15
2016-11-20T11:06:38.302Z,17.17
2016-11-20T11:07:48.616Z,17.17
2016-11-20T11:08:59.131Z,17.2
2016-11-20T11:10:09.457Z,17.2
2016-11-20T11:11:19.774Z,17.3
2016-11-20T11:12:30.088Z,17.33
2016-11-20T11:13:40.402Z,17.49
2016-11-20T11:14:50.921Z,17.54
2016-11-20T11:16:01.239Z,17.66
2016-11-20T11:17:11.556Z,17.7
2016-11-20T11:18:21.869Z,17.84
2016-11-20T11:19:32.189Z,17.89
2016-11-20T11:20:57.280Z,17.92
2016-11-20T11:22:07.601Z,17.83
2016-11-20T11:23:17.920Z,17.89
2016-11-20T11:24:42.803Z,18.02
2016-11-20T11:25:53.119Z,17.92
2016-11-20T11:27:04.164Z,17.84
2016-11-20T11:28:14.483Z,17.87
2016-11-20T11:29:24.796Z,17.79
2016-11-20T11:30:35.121Z,17.89
2016-11-20T11:33:10.456Z,18.16
2016-11-20T11:34:20.770Z,18.25
2016-11-20T11:35:31.089Z,18.41
2016-11-20T11:36:41.604Z,18.36
2016-11-20T11:37:51.920Z,18.36
2016-11-20T11:39:02.239Z,18.39
2016-11-20T11:40:12.580Z,18.46
2016-11-20T11:41:23.372Z,18.44
2016-11-20T11:42:33.689Z,18.46
2016-11-20T11:45:08.890Z,18.68
2016-11-20T11:46:19.211Z,18.79
2016-11-20T11:47:29.727Z,18.72
2016-11-20T11:48:40.589Z,18.76
2016-11-20T11:49:51.002Z,18.78
2016-11-20T11:51:01.413Z,18.76
2016-11-20T11:52:11.824Z,18.78
2016-11-20T11:53:22.240Z,18.79
2016-11-20T11:54:32.771Z,18.75
2016-11-20T11:55:43.310Z,18.9
2016-11-20T11:56:53.838Z,18.64
2016-11-20T11:58:04.372Z,18.62
2016-11-20T11:59:15.900Z,18.83
2016-11-20T12:00:26.431Z,18.89
2016-11-20T12:01:36.957Z,19.09
2016-11-20T12:02:47.511Z,19.28
2016-11-20T12:03:58.038Z,19.45
2016-11-20T12:05:08.765Z,19.61
2016-11-20T12:06:33.817Z,19.83
2016-11-20T12:07:58.867Z,19.9
2016-11-20T12:09:09.398Z,19.95
2016-11-20T12:10:19.925Z,19.92
2016-11-20T12:11:30.471Z,20.08
2016-11-20T12:12:40.997Z,20.41
2016-11-20T12:13:51.527Z,20.58
2016-11-20T12:15:02.080Z,20.81
2016-11-20T12:16:12.741Z,21.09
2016-11-20T12:17:23.275Z,21.4
2016-11-20T12:18:33.806Z,21
2016-11-20T12:19:44.336Z,20.81
2016-11-20T12:20:54.871Z,20.87
2016-11-20T12:22:05.499Z,21.15
2016-11-20T12:23:30.555Z,21.4
2016-11-20T12:24:41.089Z,21.66
2016-11-20T12:25:51.617Z,22.02
2016-11-20T12:27:16.898Z,21.83
2016-11-20T12:28:27.427Z,21.66
2016-11-20T12:29:37.898Z,21.68
2016-11-20T12:30:48.306Z,21.9
2016-11-20T12:31:58.714Z,22.04
2016-11-20T12:33:09.130Z,22.12
2016-11-20T12:34:19.549Z,22.3
2016-11-20T12:35:29.960Z,22.45
2016-11-20T12:36:40.387Z,22.63
2016-11-20T12:37:50.796Z,22.69
2016-11-20T12:39:01.217Z,22.69
2016-11-20T12:40:11.626Z,22.57
2016-11-20T12:41:22.038Z,22.81
2016-11-20T12:42:32.452Z,22.66
2016-11-20T12:43:42.868Z,22.52
2016-11-20T12:44:53.482Z,22.7
2016-11-20T12:46:03.930Z,22.66
2016-11-20T12:47:14.344Z,22.56
2016-11-20T12:48:24.763Z,22.52
2016-11-20T12:49:35.661Z,22.61
2016-11-20T12:50:46.281Z,22.89
2016-11-20T12:51:56.696Z,23.04
2016-11-20T12:53:07.120Z,23.31
2016-11-20T12:54:17.533Z,23.57
2016-11-20T12:57:07.661Z,23.49
2016-11-20T12:58:18.070Z,23.32
2016-11-20T12:59:43.038Z,23.62
2016-11-20T13:00:53.552Z,23.78
2016-11-20T13:02:03.967Z,23.69
2016-11-20T13:03:14.380Z,23.84
2016-11-20T13:04:24.853Z,23.82
2016-11-20T13:05:35.390Z,23.89
2016-11-20T13:06:45.930Z,23.96
2016-11-20T13:07:56.497Z,23.99
2016-11-20T13:09:07.031Z,24.04
2016-11-20T13:10:17.565Z,24.02
2016-11-20T13:11:28.099Z,24.23
2016-11-20T13:12:38.730Z,24.53
2016-11-20T13:13:49.260Z,24.74
2016-11-20T13:14:59.791Z,24.99
2016-11-20T13:16:10.329Z,25.23
2016-11-20T13:17:35.588Z,25.42
2016-11-20T13:18:46.065Z,25.59
2016-11-20T13:19:56.505Z,25.71
2016-11-20T13:21:06.945Z,25.42
2016-11-20T13:22:17.386Z,25.38
2016-11-20T13:23:27.825Z,25.19
2016-11-20T13:24:38.267Z,24.89
2016-11-20T13:25:48.712Z,24.89
2016-11-20T13:26:59.156Z,24.86
2016-11-20T13:28:24.239Z,24.98
2016-11-20T13:29:34.688Z,25.31
2016-11-20T13:30:45.122Z,25.3
2016-11-20T13:31:55.567Z,25.27
2016-11-20T13:33:06.004Z,24.87
2016-11-20T13:34:16.643Z,24.48
2016-11-20T13:35:41.629Z,24.63
2016-11-20T13:36:52.073Z,24.82
2016-11-20T13:39:27.504Z,25.02
2016-11-20T13:40:37.945Z,24.97
2016-11-20T13:41:48.382Z,24.99
2016-11-20T13:42:58.819Z,25.09
2016-11-20T13:44:09.263Z,25.11
2016-11-20T13:45:19.800Z,25.12
2016-11-20T13:46:44.783Z,25.26
2016-11-20T13:47:55.233Z,25.29
2016-11-20T13:49:05.680Z,25.12
2016-11-20T13:50:16.124Z,25.27
2016-11-20T13:51:26.562Z,25.44
2016-11-20T13:52:36.999Z,25.44
2016-11-20T13:53:47.442Z,25.6
2016-11-20T13:54:57.882Z,25.85
2016-11-20T13:56:08.373Z,26.12
2016-11-20T13:57:18.818Z,26.24
2016-11-20T13:58:29.295Z,26.46
2016-11-20T13:59:54.282Z,26.36
2016-11-20T14:01:04.724Z,26.23
2016-11-20T14:02:15.165Z,26.31
2016-11-20T14:03:25.658Z,26.16
2016-11-20T14:04:36.217Z,26.2
2016-11-20T14:05:46.750Z,26.31
2016-11-20T14:06:57.288Z,26.51
2016-11-20T14:08:07.819Z,26.64
2016-11-20T14:09:18.357Z,26.79
2016-11-20T14:10:28.893Z,26.79
2016-11-20T14:11:39.428Z,26.98
2016-11-20T14:12:50.166Z,27.02
2016-11-20T14:14:00.698Z,27.24
2016-11-20T14:15:11.234Z,27.35
2016-11-20T14:16:21.767Z,27.42
2016-11-20T14:17:32.306Z,27.3
2016-11-20T14:18:42.839Z,27.11
2016-11-20T14:19:53.378Z,26.84
2016-11-20T14:21:03.916Z,26.51
2016-11-20T14:22:14.478Z,26.54
2016-11-20T14:23:25.043Z,26.51
2016-11-20T14:24:35.580Z,26.46
2016-11-20T14:25:46.116Z,26.41
2016-11-20T14:26:56.653Z,26.24
2016-11-20T14:28:07.194Z,26.44
2016-11-20T14:29:17.728Z,26.59
2016-11-20T14:30:29.463Z,26.66
2016-11-20T14:31:39.999Z,26.65
2016-11-20T14:32:50.540Z,26.5
2016-11-20T14:34:01.078Z,26.59
2016-11-20T14:35:11.612Z,26.73
2016-11-20T14:36:22.251Z,26.87
2016-11-20T14:37:32.787Z,26.75
2016-11-20T14:38:43.320Z,26.78
2016-11-20T14:39:53.866Z,26.86
2016-11-20T14:41:04.399Z,26.64
2016-11-20T14:42:29.466Z,26.65
2016-11-20T14:43:40.508Z,26.57
2016-11-20T14:44:51.045Z,26.57
2016-11-20T14:46:01.585Z,26.73
2016-11-20T14:47:12.320Z,26.65
2016-11-20T14:48:22.867Z,26.64
2016-11-20T14:49:33.395Z,26.75
2016-11-20T14:50:43.933Z,26.65
2016-11-20T14:51:54.470Z,26.35
2016-11-20T14:53:05.236Z,26.49
2016-11-20T14:54:15.801Z,26.54
2016-11-20T14:55:26.373Z,26.42
2016-11-20T14:56:37.403Z,26.16
2016-11-20T14:57:47.941Z,26.11
2016-11-20T14:58:58.704Z,26.03
2016-11-20T15:00:09.237Z,26.01
2016-11-20T15:01:19.771Z,25.76
2016-11-20T15:02:30.303Z,25.75
2016-11-20T15:03:40.835Z,25.86
2016-11-20T15:04:51.573Z,25.61
2016-11-20T15:06:02.104Z,25.46
2016-11-20T15:07:12.638Z,25.67
2016-11-20T15:08:37.701Z,25.56
2016-11-20T15:09:48.437Z,25.11
2016-11-20T15:10:58.974Z,24.94
2016-11-20T15:12:09.535Z,24.9
2016-11-20T15:13:20.066Z,24.82
2016-11-20T15:14:30.600Z,24.66
2016-11-20T15:15:41.337Z,24.34
2016-11-20T15:16:52.389Z,24.18
2016-11-20T15:18:03.416Z,24.19
2016-11-20T15:19:13.973Z,24.16
2016-11-20T15:20:24.516Z,24.19
2016-11-20T15:21:35.247Z,24.04
2016-11-20T15:22:45.779Z,24.05
2016-11-20T15:24:10.838Z,23.93
2016-11-20T15:25:21.317Z,23.99
2016-11-20T15:26:31.833Z,23.82
2016-11-20T15:27:56.803Z,23.82
2016-11-20T15:29:21.767Z,23.96
2016-11-20T15:30:32.187Z,23.87
2016-11-20T15:31:57.153Z,23.77
2016-11-20T15:33:07.566Z,23.67
2016-11-20T15:34:17.984Z,23.68
2016-11-20T15:35:28.395Z,23.69
2016-11-20T15:36:39.292Z,23.62
2016-11-20T15:37:49.711Z,23.6
2016-11-20T15:39:00.125Z,23.62
2016-11-20T15:40:10.547Z,23.64
2016-11-20T15:41:20.959Z,23.47
2016-11-20T15:42:45.925Z,23.39
2016-11-20T15:43:56.337Z,23.32